Time;durP1;ratioP1;P1;durP2;ratioP2;P2;SDS_P1;SDS_P2;PMS_P1;PMS_P2;Temp;Humidity;BMP_temperature;BMP_pressure;BME280_temperature;BME280_humidity;BME280_pressure;Samples;Min_cycle;Max_cycle;Signal;HPM_P1;HPM_P2
2021/03/25 00:01:16;;;;;;;52.33;22.67;;;8.60;99.90;;;;;;5071103;28;20415;-74
2021/03/25 00:03:45;;;;;;;47.65;23.52;;;8.60;99.90;;;;;;5066711;28;20038;-74
2021/03/25 00:06:11;;;;;;;49.13;21.33;;;8.60;99.90;;;;;;5072380;28;20009;-74
2021/03/25 00:08:36;;;;;;;44.85;20.77;;;8.70;99.90;;;;;;5072488;28;20024;-75
2021/03/25 00:11:03;;;;;;;46.55;21.00;;;8.70;99.90;;;;;;5061626;28;20064;-74
2021/03/25 00:13:28;;;;;;;48.95;20.98;;;8.70;99.90;;;;;;5072675;28;20039;-74
2021/03/25 00:15:54;;;;;;;48.05;21.65;;;8.70;99.90;;;;;;5071491;28;20103;-74
2021/03/25 00:18:20;;;;;;;51.08;20.60;;;8.70;99.90;;;;;;5072690;28;20033;-74
2021/03/25 00:20:46;;;;;;;46.92;21.13;;;8.70;99.90;;;;;;5054516;28;20024;-75
2021/03/25 00:23:13;;;;;;;48.63;21.48;;;8.80;99.90;;;;;;5070747;28;20033;-74
2021/03/25 00:25:39;;;;;;;40.00;21.00;;;8.80;99.90;;;;;;5069441;28;20031;-74
2021/03/25 00:28:07;;;;;;;48.47;22.05;;;8.70;99.90;;;;;;5070437;28;20025;-75
2021/03/25 00:30:33;;;;;;;46.92;21.45;;;8.70;99.90;;;;;;5054234;28;20042;-74
2021/03/25 00:33:03;;;;;;;53.55;21.38;;;8.60;99.90;;;;;;5069572;28;20029;-74
2021/03/25 00:35:29;;;;;;;57.35;24.10;;;8.60;99.90;;;;;;5057464;28;20074;-74
2021/03/25 00:37:56;;;;;;;44.42;21.58;;;8.60;99.90;;;;;;5048000;28;20041;-75
2021/03/25 00:40:21;;;;;;;49.63;23.35;;;8.60;99.90;;;;;;5069563;28;20374;-75
2021/03/25 00:42:48;;;;;;;56.42;23.75;;;8.60;99.90;;;;;;5068426;28;20030;-75
2021/03/25 00:45:26;;;;;;;60.08;25.65;;;8.50;99.90;;;;;;5072603;28;20048;-75
2021/03/25 00:47:52;;;;;;;50.25;24.27;;;8.60;99.90;;;;;;5061959;28;20103;-75
2021/03/25 00:50:25;;;;;;;56.95;24.15;;;8.60;99.90;;;;;;5057771;28;20456;-75
2021/03/25 00:52:51;;;;;;;58.80;23.08;;;8.60;99.90;;;;;;5052955;28;20035;-74
2021/03/25 00:55:17;;;;;;;53.63;23.98;;;8.60;99.90;;;;;;5062179;28;20032;-74
2021/03/25 00:57:43;;;;;;;55.80;23.83;;;8.70;99.90;;;;;;5058394;28;20032;-75
2021/03/25 01:00:09;;;;;;;55.70;22.48;;;8.70;99.90;;;;;;5076128;28;20390;-74
2021/03/25 01:02:35;;;;;;;51.80;24.83;;;8.70;99.90;;;;;;5074998;28;20138;-75
2021/03/25 01:05:00;;;;;;;55.80;23.92;;;8.70;99.90;;;;;;5075504;28;20507;-75
2021/03/25 01:07:28;;;;;;;63.00;24.25;;;8.70;99.90;;;;;;5072828;28;20013;-75
2021/03/25 01:09:54;;;;;;;60.95;25.73;;;8.70;99.90;;;;;;5058005;28;20032;-74
2021/03/25 01:12:20;;;;;;;57.42;23.92;;;8.70;99.90;;;;;;5076086;28;20024;-74
2021/03/25 01:14:46;;;;;;;51.42;23.63;;;8.60;99.90;;;;;;5072903;28;20028;-75
2021/03/25 01:17:11;;;;;;;59.88;24.67;;;8.70;99.90;;;;;;5057082;28;20036;-74
2021/03/25 01:19:37;;;;;;;57.13;24.40;;;8.70;99.90;;;;;;5075512;28;20107;-72
2021/03/25 01:22:04;;;;;;;58.63;24.60;;;8.70;99.90;;;;;;5055112;28;20028;-74
2021/03/25 01:24:29;;;;;;;58.42;24.80;;;8.60;99.90;;;;;;5075787;28;20028;-73
2021/03/25 01:26:55;;;;;;;61.30;24.48;;;8.60;99.90;;;;;;5075423;28;20036;-74
2021/03/25 01:29:21;;;;;;;53.15;23.52;;;8.60;99.90;;;;;;5073773;28;20065;-73
2021/03/25 01:31:48;;;;;;;57.30;24.80;;;8.50;99.90;;;;;;5069200;28;20016;-75
2021/03/25 01:34:16;;;;;;;61.30;25.40;;;8.50;99.90;;;;;;5046072;28;20377;-74
2021/03/25 01:36:42;;;;;;;58.47;25.60;;;8.50;99.90;;;;;;5052177;28;20033;-74
2021/03/25 01:39:08;;;;;;;61.85;24.83;;;8.40;99.90;;;;;;5044047;28;20035;-73
2021/03/25 01:41:36;;;;;;;49.17;23.10;;;8.30;99.90;;;;;;5075626;28;20107;-74
2021/03/25 01:44:03;;;;;;;55.20;24.50;;;8.30;99.90;;;;;;5074128;28;20366;-74
2021/03/25 01:46:32;;;;;;;52.13;23.52;;;8.30;99.90;;;;;;5050569;28;20067;-73
2021/03/25 01:49:04;;;;;;;65.68;25.40;;;8.30;99.90;;;;;;5055087;28;20032;-74
2021/03/25 01:51:35;;;;;;;61.08;24.50;;;8.30;99.90;;;;;;5066908;28;20035;-74
2021/03/25 01:54:04;;;;;;;57.92;24.95;;;8.20;99.90;;;;;;5056646;28;20020;-74
2021/03/25 01:56:48;;;;;;;60.08;25.08;;;8.20;99.90;;;;;;5075072;28;20025;-73
2021/03/25 01:59:27;;;;;;;50.33;22.48;;;8.20;99.90;;;;;;5043135;28;20028;-73
2021/03/25 02:01:56;;;;;;;64.13;23.90;;;8.10;99.90;;;;;;5071997;28;20492;-74
2021/03/25 02:04:31;;;;;;;54.63;24.58;;;8.10;99.90;;;;;;5074389;28;20028;-74
2021/03/25 02:07:18;;;;;;;58.55;23.92;;;8.10;99.90;;;;;;5057265;28;20029;-74
2021/03/25 02:10:07;;;;;;;56.75;23.45;;;8.10;99.90;;;;;;5071976;28;20067;-74
2021/03/25 02:12:56;;;;;;;64.20;24.75;;;8.10;99.90;;;;;;5055838;28;20036;-74
2021/03/25 02:15:43;;;;;;;56.50;24.05;;;8.00;99.90;;;;;;5049051;28;20455;-74
2021/03/25 02:18:35;;;;;;;61.33;23.67;;;8.00;99.90;;;;;;5060967;28;20068;-74
2021/03/25 02:21:22;;;;;;;63.92;25.67;;;7.90;99.90;;;;;;5072238;28;20032;-74
2021/03/25 02:24:02;;;;;;;59.97;24.92;;;7.90;99.90;;;;;;5073367;28;20028;-74
2021/03/25 02:26:57;;;;;;;67.20;25.92;;;7.90;99.90;;;;;;5075201;28;20051;-74
2021/03/25 02:29:58;;;;;;;65.63;26.10;;;7.80;99.90;;;;;;5052607;28;20047;-74
2021/03/25 02:32:33;;;;;;;62.17;25.80;;;7.80;99.90;;;;;;5073124;28;20107;-73
2021/03/25 02:35:04;;;;;;;60.45;25.80;;;7.80;99.90;;;;;;5067244;28;20035;-73
2021/03/25 02:37:33;;;;;;;76.95;26.83;;;7.80;99.90;;;;;;5065418;28;20029;-73
2021/03/25 02:40:13;;;;;;;63.20;26.92;;;7.80;99.90;;;;;;5055599;28;20025;-74
2021/03/25 02:42:45;;;;;;;60.65;26.00;;;7.80;99.90;;;;;;5072400;28;20029;-74
2021/03/25 02:45:16;;;;;;;72.75;29.98;;;7.80;99.90;;;;;;5073270;28;20127;-74
2021/03/25 02:47:45;;;;;;;69.70;26.85;;;7.80;99.90;;;;;;5074351;28;20029;-74
2021/03/25 02:50:29;;;;;;;73.38;27.98;;;7.80;99.90;;;;;;5073391;28;20044;-74
2021/03/25 02:53:04;;;;;;;73.00;29.05;;;7.90;99.90;;;;;;5055838;28;20333;-74
2021/03/25 02:55:30;;;;;;;63.70;28.00;;;7.90;99.90;;;;;;5071803;28;20059;-74
2021/03/25 02:58:04;;;;;;;62.42;27.73;;;7.90;99.90;;;;;;5073946;28;20056;-75
2021/03/25 03:00:39;;;;;;;61.30;25.20;;;8.00;99.90;;;;;;5072662;28;20475;-74
2021/03/25 03:03:08;;;;;;;63.92;27.58;;;8.00;99.90;;;;;;5066581;28;20056;-75
2021/03/25 03:05:36;;;;;;;75.75;27.92;;;8.00;99.90;;;;;;5055602;28;20105;-74
2021/03/25 03:08:06;;;;;;;;;;;8.10;99.90;;;;;;5074051;28;20063;-75
2021/03/25 03:10:42;;;;;;;62.28;25.85;;;8.10;99.90;;;;;;5072779;28;19908;-75
2021/03/25 03:13:10;;;;;;;65.63;28.15;;;8.20;99.90;;;;;;5061155;28;20041;-75
2021/03/25 03:15:46;;;;;;;72.05;28.02;;;8.20;99.90;;;;;;5051801;28;20032;-73
2021/03/25 03:18:29;;;;;;;66.20;27.17;;;8.30;99.90;;;;;;5069821;28;20028;-74
2021/03/25 03:21:00;;;;;;;69.25;29.25;;;8.30;99.90;;;;;;5073050;28;20029;-75
2021/03/25 03:23:29;;;;;;;69.78;27.85;;;8.40;99.90;;;;;;5055124;28;20040;-74
2021/03/25 03:25:57;;;;;;;69.07;29.40;;;8.50;99.90;;;;;;5072745;28;20049;-74
2021/03/25 03:28:35;;;;;;;66.70;28.08;;;8.50;99.90;;;;;;5054046;28;20481;-74
2021/03/25 03:31:06;;;;;;;69.35;30.67;;;8.40;99.90;;;;;;5071720;28;20025;-75
2021/03/25 03:33:36;;;;;;;71.95;31.15;;;8.40;99.90;;;;;;5072328;28;20524;-75
2021/03/25 03:36:05;;;;;;;67.07;29.17;;;8.40;99.90;;;;;;5055094;28;20035;-75
2021/03/25 03:38:37;;;;;;;68.70;30.15;;;8.40;99.90;;;;;;5055090;28;20021;-75
2021/03/25 03:41:04;;;;;;;81.63;30.35;;;8.40;99.90;;;;;;5072613;28;20392;-75
2021/03/25 03:43:33;;;;;;;71.17;29.03;;;8.50;99.90;;;;;;5067842;28;20028;-75
2021/03/25 03:46:10;;;;;;;81.70;29.83;;;8.60;99.90;;;;;;5048684;28;20033;-74
2021/03/25 03:48:42;;;;;;;76.25;30.45;;;8.60;99.90;;;;;;5055372;28;20021;-74
2021/03/25 03:51:13;;;;;;;72.25;30.38;;;8.70;99.90;;;;;;5071986;28;20039;-74
2021/03/25 03:53:39;;;;;;;74.40;31.63;;;8.70;99.90;;;;;;5069745;28;20038;-74
2021/03/25 03:56:36;;;;;;;78.97;32.03;;;8.70;99.90;;;;;;5072776;28;20020;-74
2021/03/25 03:59:08;;;;;;;71.25;29.15;;;8.70;99.90;;;;;;5069419;28;20036;-75
2021/03/25 04:01:49;;;;;;;77.25;30.35;;;8.60;99.90;;;;;;5043128;28;20029;-74
2021/03/25 04:04:32;;;;;;;79.63;30.35;;;8.70;99.90;;;;;;5052858;28;20028;-75
2021/03/25 04:07:03;;;;;;;79.07;31.27;;;8.60;99.90;;;;;;5068464;28;20024;-74
2021/03/25 04:09:49;;;;;;;82.15;32.85;;;8.60;99.90;;;;;;5053313;28;20390;-74
2021/03/25 04:12:22;;;;;;;82.88;32.60;;;8.60;99.90;;;;;;5063737;28;20083;-74
2021/03/25 04:15:05;;;;;;;83.28;30.95;;;8.50;99.90;;;;;;5062970;28;20473;-74
2021/03/25 04:17:34;;;;;;;71.13;31.27;;;8.60;99.90;;;;;;5053877;28;20075;-74
2021/03/25 04:20:08;;;;;;;79.22;32.10;;;8.60;99.90;;;;;;5044276;28;20036;-74
2021/03/25 04:22:40;;;;;;;86.80;34.15;;;8.50;99.90;;;;;;5073019;28;20048;-74
2021/03/25 04:25:27;;;;;;;86.50;33.22;;;8.50;99.90;;;;;;5054492;28;20021;-74
2021/03/25 04:28:07;;;;;;;84.28;34.42;;;8.50;99.90;;;;;;5071154;28;20025;-75
2021/03/25 04:30:36;;;;;;;90.57;36.13;;;8.50;99.90;;;;;;5072524;28;20434;-74
2021/03/25 04:33:04;;;;;;;88.63;36.88;;;8.50;99.90;;;;;;5071405;28;20146;-74
2021/03/25 04:35:29;;;;;;;86.22;36.00;;;8.60;99.90;;;;;;5053850;28;20500;-74
2021/03/25 04:37:58;;;;;;;91.13;35.85;;;8.60;99.90;;;;;;5071459;28;20056;-74
2021/03/25 04:40:34;;;;;;;;;;;8.70;99.90;;;;;;5073088;28;20035;-74
2021/03/25 04:43:00;;;;;;;90.28;34.80;;;8.70;99.90;;;;;;5071056;28;19908;-74
2021/03/25 04:45:31;;;;;;;92.43;35.53;;;8.70;99.90;;;;;;5072788;28;20036;-74
2021/03/25 04:48:01;;;;;;;82.55;36.20;;;8.70;99.90;;;;;;5068808;28;20025;-74
2021/03/25 04:50:34;;;;;;;84.90;38.25;;;8.70;99.90;;;;;;5054466;28;20028;-74
2021/03/25 04:53:05;;;;;;;85.35;36.15;;;8.70;99.90;;;;;;5069664;28;20025;-74
2021/03/25 04:55:34;;;;;;;96.20;40.45;;;8.70;99.90;;;;;;5053488;28;20028;-74
2021/03/25 04:58:06;;;;;;;103.55;40.22;;;8.70;99.90;;;;;;5054091;28;20025;-74
2021/03/25 05:00:36;;;;;;;98.65;41.40;;;8.70;99.90;;;;;;5049252;28;20093;-74
2021/03/25 05:03:04;;;;;;;105.95;42.67;;;8.50;99.90;;;;;;5051884;28;20028;-75
2021/03/25 05:05:31;;;;;;;95.10;42.80;;;8.60;99.90;;;;;;5054301;28;20041;-74
2021/03/25 05:08:27;;;;;;;105.07;44.67;;;8.60;99.90;;;;;;5052688;28;20021;-74
2021/03/25 05:11:09;;;;;;;103.47;42.55;;;8.50;99.90;;;;;;5058375;28;20485;-74
2021/03/25 05:13:41;;;;;;;101.32;43.08;;;8.50;99.90;;;;;;5066344;28;20077;-74
2021/03/25 05:16:18;;;;;;;100.40;44.38;;;8.50;99.90;;;;;;5053182;28;20027;-74
2021/03/25 05:19:12;;;;;;;103.53;42.42;;;8.50;99.90;;;;;;5072014;28;20504;-74
2021/03/25 05:22:05;;;;;;;96.30;41.45;;;8.50;99.90;;;;;;5060814;28;20033;-72
2021/03/25 05:24:46;;;;;;;96.15;39.70;;;8.40;99.90;;;;;;5071538;28;20107;-73
2021/03/25 05:27:25;;;;;;;97.55;41.85;;;8.40;99.90;;;;;;5053865;28;20031;-73
2021/03/25 05:29:54;;;;;;;90.57;39.75;;;8.50;99.90;;;;;;5053973;28;20036;-74
2021/03/25 05:32:22;;;;;;;90.65;39.28;;;8.50;99.90;;;;;;5071422;28;20024;-74
2021/03/25 05:34:49;;;;;;;93.05;38.67;;;8.50;99.90;;;;;;5075040;28;20483;-74
2021/03/25 05:37:16;;;;;;;89.03;39.15;;;8.50;99.90;;;;;;5052667;28;20025;-73
2021/03/25 05:39:42;;;;;;;92.75;38.15;;;8.50;99.90;;;;;;5057177;28;20485;-74
2021/03/25 05:42:10;;;;;;;89.80;36.80;;;8.50;99.90;;;;;;5051428;28;20033;-74
2021/03/25 05:45:13;;;;;;;95.47;38.83;;;8.50;99.90;;;;;;5074091;28;20105;-74
2021/03/25 05:47:53;;;;;;;79.75;33.45;;;8.50;99.90;;;;;;5072286;28;20028;-73
2021/03/25 05:50:57;;;;;;;89.10;35.15;;;8.50;99.90;;;;;;5072922;28;20024;-73
2021/03/25 05:53:37;;;;;;;84.03;33.20;;;8.50;99.90;;;;;;5018770;28;20076;-74
2021/03/25 05:56:13;;;;;;;84.10;34.03;;;8.50;99.90;;;;;;5013303;28;20042;-74
2021/03/25 05:58:48;;;;;;;86.57;33.70;;;8.50;99.90;;;;;;5042748;28;20056;-73
2021/03/25 06:01:30;;;;;;;85.65;33.50;;;8.50;99.90;;;;;;5055519;28;20115;-74
2021/03/25 06:03:58;;;;;;;76.10;30.98;;;8.50;99.90;;;;;;5055814;28;20020;-74
2021/03/25 06:06:55;;;;;;;81.50;31.52;;;8.50;99.90;;;;;;5068320;28;20052;-76
2021/03/25 06:09:44;;;;;;;75.18;31.45;;;8.60;99.90;;;;;;5053840;28;20036;-74
2021/03/25 06:12:46;;;;;;;83.10;32.88;;;8.70;99.90;;;;;;5073174;28;20056;-74
2021/03/25 06:15:49;;;;;;;68.93;31.85;;;8.70;99.90;;;;;;5072756;28;20101;-74
2021/03/25 06:18:46;;;;;;;68.75;29.85;;;8.80;99.90;;;;;;5071441;28;20036;-74
2021/03/25 06:21:15;;;;;;;83.10;33.70;;;8.70;99.90;;;;;;5071944;28;20586;-74
2021/03/25 06:23:53;;;;;;;73.78;31.30;;;8.70;99.90;;;;;;5069204;28;20463;-75
2021/03/25 06:26:43;;;;;;;76.97;29.80;;;8.70;99.90;;;;;;5072066;28;20468;-74
2021/03/25 06:29:19;;;;;;;79.53;30.85;;;8.80;99.90;;;;;;5024369;28;20546;-74
2021/03/25 06:32:04;;;;;;;80.93;32.90;;;8.80;99.90;;;;;;5073059;28;20142;-74
2021/03/25 06:34:40;;;;;;;84.05;32.60;;;8.90;99.90;;;;;;5073833;28;20472;-74
2021/03/25 06:37:38;;;;;;;78.30;29.25;;;8.90;99.90;;;;;;5072724;28;20025;-74
2021/03/25 06:40:06;;;;;;;80.38;32.75;;;9.10;99.90;;;;;;5049903;28;20042;-74
2021/03/25 06:42:54;;;;;;;72.93;31.90;;;9.20;99.90;;;;;;5070736;28;20028;-74
2021/03/25 06:45:26;;;;;;;67.32;30.40;;;9.30;99.90;;;;;;5072924;28;20049;-74
2021/03/25 06:48:04;;;;;;;74.95;30.08;;;9.40;99.90;;;;;;5047804;28;20032;-74
2021/03/25 06:50:45;;;;;;;71.90;29.23;;;9.50;99.90;;;;;;5054735;28;20037;-74
2021/03/25 06:53:11;;;;;;;69.10;30.05;;;9.50;99.90;;;;;;5062659;28;20388;-74
2021/03/25 06:55:37;;;;;;;72.78;30.30;;;9.50;99.90;;;;;;5054436;28;20024;-73
2021/03/25 06:58:12;;;;;;;67.28;30.38;;;9.50;99.90;;;;;;5053227;28;20554;-73
2021/03/25 07:00:41;;;;;;;63.70;27.98;;;9.50;99.90;;;;;;5069907;28;20024;-75
2021/03/25 07:03:14;;;;;;;68.65;28.02;;;9.60;99.90;;;;;;5073354;28;20464;-74
2021/03/25 07:05:41;;;;;;;73.20;29.25;;;9.60;99.90;;;;;;5058325;28;20023;-74
2021/03/25 07:08:24;;;;;;;72.40;27.63;;;9.70;99.90;;;;;;5063788;28;20024;-74
2021/03/25 07:11:05;;;;;;;65.65;28.65;;;9.70;99.90;;;;;;5055678;28;20419;-74
2021/03/25 07:13:31;;;;;;;62.72;28.25;;;9.70;99.90;;;;;;5036154;28;20021;-73
2021/03/25 07:15:57;;;;;;;61.75;28.60;;;9.80;99.90;;;;;;5072714;28;20112;-74
2021/03/25 07:18:32;;;;;;;62.65;28.30;;;9.80;99.90;;;;;;5073563;28;20032;-75
2021/03/25 07:21:21;;;;;;;69.25;29.08;;;9.90;99.90;;;;;;5054738;28;20035;-74
2021/03/25 07:23:47;;;;;;;68.32;28.70;;;10.00;99.90;;;;;;5071724;28;20416;-74
2021/03/25 07:26:33;;;;;;;63.80;28.52;;;10.00;99.90;;;;;;5056432;28;20021;-74
2021/03/25 07:29:06;;;;;;;65.13;27.77;;;10.00;99.90;;;;;;5058605;28;20032;-75
2021/03/25 07:31:37;;;;;;;69.03;28.52;;;9.90;99.90;;;;;;5073305;28;20111;-73
2021/03/25 07:34:04;;;;;;;73.50;29.30;;;9.80;99.90;;;;;;5052932;28;20037;-74
2021/03/25 07:36:32;;;;;;;55.72;27.70;;;9.70;99.90;;;;;;5056384;28;20481;-74
2021/03/25 07:39:05;;;;;;;71.55;27.42;;;9.80;99.90;;;;;;5069616;28;20052;-74
2021/03/25 07:41:34;;;;;;;60.17;26.52;;;9.90;99.90;;;;;;5060989;28;20036;-74
2021/03/25 07:44:04;;;;;;;69.63;29.35;;;9.90;99.90;;;;;;5062078;28;20033;-74
2021/03/25 07:46:57;;;;;;;56.75;26.80;;;10.00;99.90;;;;;;5068112;28;20021;-75
2021/03/25 07:49:29;;;;;;;61.15;26.17;;;10.30;99.90;;;;;;5066494;28;20131;-74
2021/03/25 07:52:29;;;;;;;74.10;28.48;;;10.50;99.90;;;;;;5066703;28;20552;-74
2021/03/25 07:55:11;;;;;;;62.03;25.52;;;10.40;99.90;;;;;;5063472;28;20086;-74
2021/03/25 07:57:42;;;;;;;61.03;26.17;;;10.50;99.90;;;;;;5070136;28;20515;-75
2021/03/25 08:00:24;;;;;;;63.13;27.33;;;10.60;99.90;;;;;;5052745;28;20062;-74
2021/03/25 08:03:11;;;;;;;68.00;28.55;;;10.60;99.90;;;;;;5071231;28;20016;-74
2021/03/25 08:05:37;;;;;;;61.60;27.42;;;10.70;99.90;;;;;;5070547;28;20024;-74
2021/03/25 08:08:16;;;;;;;65.38;26.85;;;10.80;99.90;;;;;;5072509;28;20021;-74
2021/03/25 08:10:44;;;;;;;53.28;26.02;;;11.00;99.90;;;;;;5059425;28;20085;-74
2021/03/25 08:13:24;;;;;;;59.65;26.52;;;11.20;99.90;;;;;;5073064;28;20147;-74
2021/03/25 08:16:05;;;;;;;53.70;25.02;;;11.40;99.90;;;;;;5052597;28;20020;-74
2021/03/25 08:18:37;;;;;;;67.75;27.08;;;11.40;99.90;;;;;;5060701;28;20037;-73
2021/03/25 08:21:19;;;;;;;52.97;24.73;;;11.50;99.90;;;;;;5047232;28;20048;-72
2021/03/25 08:23:50;;;;;;;55.42;24.17;;;11.60;99.90;;;;;;5072254;28;20028;-72
2021/03/25 08:26:26;;;;;;;53.03;25.05;;;11.50;99.90;;;;;;5067764;28;20488;-72
2021/03/25 08:29:15;;;;;;;61.25;24.98;;;11.50;99.90;;;;;;5065686;28;20017;-73
2021/03/25 08:32:21;;;;;;;55.92;26.20;;;11.60;99.90;;;;;;5067620;28;20048;-72
2021/03/25 08:35:13;;;;;;;63.03;25.02;;;11.60;99.90;;;;;;5072248;28;20032;-73
2021/03/25 08:37:57;;;;;;;61.97;24.55;;;11.50;99.90;;;;;;5073073;28;20495;-72
2021/03/25 08:40:51;;;;;;;52.22;25.27;;;11.40;99.90;;;;;;5053444;28;20036;-73
2021/03/25 08:43:26;;;;;;;65.20;25.67;;;11.50;99.90;;;;;;5064927;28;20035;-73
2021/03/25 08:46:07;;;;;;;45.15;22.75;;;11.40;99.90;;;;;;5085502;28;20083;-73
2021/03/25 08:48:46;;;;;;;56.97;24.38;;;11.50;99.90;;;;;;5074474;28;20031;-73
2021/03/25 08:51:15;;;;;;;57.67;25.10;;;11.50;99.90;;;;;;5074413;28;20043;-73
2021/03/25 08:54:02;;;;;;;43.75;22.70;;;11.40;99.90;;;;;;5071291;28;20038;-73
2021/03/25 08:56:55;;;;;;;49.05;23.65;;;11.30;99.90;;;;;;5074004;28;20049;-73
2021/03/25 08:59:23;;;;;;;55.95;25.05;;;11.50;99.90;;;;;;5072805;28;20397;-77
2021/03/25 09:02:25;;;;;;;53.85;24.02;;;11.60;99.90;;;;;;5072266;28;20028;-74
2021/03/25 09:04:52;;;;;;;44.90;23.45;;;11.60;99.90;;;;;;5045517;28;20032;-74
2021/03/25 09:07:19;;;;;;;56.33;25.55;;;11.70;99.90;;;;;;5055143;28;20021;-74
2021/03/25 09:09:50;;;;;;;57.97;24.33;;;11.60;99.90;;;;;;5074927;28;20097;-74
2021/03/25 09:12:21;;;;;;;57.70;26.17;;;11.60;99.90;;;;;;5056917;28;20025;-74
2021/03/25 09:14:48;;;;;;;57.28;24.77;;;11.60;99.90;;;;;;5069099;28;20023;-74
2021/03/25 09:17:21;;;;;;;54.28;25.02;;;11.70;99.90;;;;;;5075768;28;20025;-73
2021/03/25 09:19:50;;;;;;;46.45;22.92;;;11.70;99.90;;;;;;5070421;28;20544;-73
2021/03/25 09:22:39;;;;;;;52.25;23.95;;;11.70;99.90;;;;;;5057748;28;20417;-73
2021/03/25 09:25:19;;;;;;;48.35;22.55;;;11.70;99.90;;;;;;5073333;28;20017;-74
2021/03/25 09:28:07;;;;;;;47.38;21.55;;;11.80;99.90;;;;;;5072991;28;20597;-72
2021/03/25 09:30:47;;;;;;;44.80;22.85;;;11.90;99.90;;;;;;5074955;28;20055;-72
2021/03/25 09:33:37;;;;;;;56.20;24.90;;;12.00;99.90;;;;;;5056725;28;20495;-73
2021/03/25 09:36:18;;;;;;;43.85;22.08;;;12.20;99.90;;;;;;5057487;28;20039;-74
2021/03/25 09:38:59;;;;;;;52.45;22.25;;;12.50;99.90;;;;;;5057154;28;20059;-74
2021/03/25 09:41:24;;;;;;;50.25;23.83;;;12.60;99.90;;;;;;5057608;28;20029;-74
2021/03/25 09:43:52;;;;;;;39.72;21.00;;;12.60;99.90;;;;;;5074519;28;20100;-74
2021/03/25 09:46:37;;;;;;;;;;;12.60;99.90;;;;;;5075609;28;20061;-73
2021/03/25 09:49:27;;;;;;;48.88;22.20;;;12.30;99.90;;;;;;5044430;28;19913;-73
2021/03/25 09:54:41;;;;;;;44.70;21.13;;;12.30;99.90;;;;;;5075988;28;20033;-74
2021/03/25 09:57:28;;;;;;;44.97;20.50;;;12.20;99.90;;;;;;5073189;28;20078;-74
2021/03/25 10:00:01;;;;;;;42.97;20.42;;;12.30;99.90;;;;;;5074826;28;20024;-74
2021/03/25 10:02:45;;;;;;;36.38;16.35;;;12.30;99.90;;;;;;5066175;28;20416;-74
2021/03/25 10:05:33;;;;;;;28.75;17.20;;;12.20;99.90;;;;;;5039382;28;20041;-74
2021/03/25 10:08:18;;;;;;;30.83;16.55;;;12.00;99.90;;;;;;5057020;28;20044;-74
2021/03/25 10:10:58;;;;;;;30.33;16.00;;;12.10;99.90;;;;;;5074784;28;20032;-73
2021/03/25 10:13:33;;;;;;;31.10;15.52;;;12.10;99.90;;;;;;5057528;28;20032;-74
2021/03/25 10:16:07;;;;;;;26.35;14.13;;;12.00;99.90;;;;;;5073958;28;20145;-74
2021/03/25 10:18:33;;;;;;;30.13;13.75;;;12.00;99.90;;;;;;5056722;28;20029;-74
2021/03/25 10:21:03;;;;;;;22.27;12.82;;;12.00;99.90;;;;;;5055400;28;20143;-73
2021/03/25 10:23:49;;;;;;;25.55;13.30;;;11.90;99.90;;;;;;5071459;28;20028;-74
2021/03/25 10:26:38;;;;;;;26.52;13.75;;;11.90;99.90;;;;;;5070096;28;20056;-75
2021/03/25 10:29:09;;;;;;;23.42;12.82;;;11.90;99.90;;;;;;5054405;28;20024;-74
2021/03/25 10:31:55;;;;;;;24.25;12.25;;;11.90;99.90;;;;;;5073915;28;20479;-73
2021/03/25 10:34:27;;;;;;;21.15;12.68;;;11.90;99.90;;;;;;5054655;28;20062;-72
2021/03/25 10:37:04;;;;;;;23.40;12.88;;;11.80;99.90;;;;;;5072990;28;20036;-71
2021/03/25 10:39:34;;;;;;;18.15;11.15;;;11.80;99.90;;;;;;5066304;28;20051;-72
2021/03/25 10:42:26;;;;;;;24.70;11.73;;;11.80;99.90;;;;;;5055729;28;20493;-73
2021/03/25 10:44:53;;;;;;;14.73;9.35;;;11.80;99.90;;;;;;5076756;28;20028;-74
2021/03/25 10:47:31;;;;;;;18.40;9.95;;;12.00;99.90;;;;;;5057128;28;20337;-72
2021/03/25 10:50:00;;;;;;;15.23;8.63;;;12.10;99.90;;;;;;5070294;28;20091;-72
2021/03/25 10:52:41;;;;;;;14.13;8.93;;;12.30;99.90;;;;;;5059299;28;20033;-72
2021/03/25 10:55:07;;;;;;;13.23;8.77;;;12.50;99.90;;;;;;5058727;28;20043;-72
2021/03/25 10:57:33;;;;;;;15.73;8.35;;;12.40;99.90;;;;;;5059404;28;20040;-72
2021/03/25 11:00:17;;;;;;;14.13;8.95;;;12.40;99.90;;;;;;5074145;28;20040;-73
2021/03/25 11:02:45;;;;;;;17.88;9.82;;;12.40;99.90;;;;;;5075762;28;20103;-72
2021/03/25 11:05:21;;;;;;;17.30;10.70;;;12.20;99.90;;;;;;5057997;28;20078;-73
2021/03/25 11:07:50;;;;;;;19.25;10.60;;;12.30;99.90;;;;;;5074533;28;20282;-72
2021/03/25 11:10:31;;;;;;;20.10;11.50;;;12.20;99.90;;;;;;5054428;28;20024;-72
2021/03/25 11:13:11;;;;;;;27.42;13.07;;;12.20;99.90;;;;;;5072331;28;20072;-72
2021/03/25 11:15:44;;;;;;;33.63;16.50;;;12.00;99.90;;;;;;5071381;28;20036;-72
2021/03/25 11:18:21;;;;;;;34.60;16.58;;;11.80;99.90;;;;;;5074130;28;20032;-72
2021/03/25 11:20:47;;;;;;;38.87;18.97;;;11.80;99.90;;;;;;5073453;28;20037;-73
2021/03/25 11:23:15;;;;;;;35.67;17.08;;;11.70;99.90;;;;;;5052741;28;20507;-72
2021/03/25 11:25:41;;;;;;;37.22;18.02;;;11.70;99.90;;;;;;5065323;28;20111;-72
2021/03/25 11:28:13;;;;;;;35.10;18.58;;;11.60;99.90;;;;;;5072851;28;20107;-71
2021/03/25 11:30:46;;;;;;;41.67;18.80;;;11.60;99.90;;;;;;5071597;28;20421;-73
2021/03/25 11:33:32;;;;;;;34.88;18.50;;;11.50;99.90;;;;;;5073209;28;20028;-72
2021/03/25 11:36:01;;;;;;;43.58;17.90;;;11.40;99.90;;;;;;5071182;28;20024;-72
2021/03/25 11:38:27;;;;;;;40.28;18.17;;;11.20;99.90;;;;;;5055021;28;20059;-72
2021/03/25 11:41:17;;;;;;;49.00;19.00;;;11.10;99.90;;;;;;5069258;28;20508;-72
2021/03/25 11:44:04;;;;;;;40.55;18.50;;;11.20;99.90;;;;;;5053270;28;20029;-72
2021/03/25 11:46:30;;;;;;;46.38;19.20;;;11.20;99.90;;;;;;5047942;28;20501;-72
2021/03/25 11:49:07;;;;;;;47.40;20.20;;;11.10;99.90;;;;;;5066990;28;20020;-73
2021/03/25 11:51:36;;;;;;;48.97;19.10;;;11.10;99.90;;;;;;5069891;28;20047;-73
2021/03/25 11:54:21;;;;;;;55.60;20.67;;;11.00;99.90;;;;;;5071956;28;20115;-72
2021/03/25 11:56:56;;;;;;;47.45;18.45;;;11.00;99.90;;;;;;5067122;28;20033;-73
2021/03/25 11:59:36;;;;;;;39.35;17.33;;;11.20;99.90;;;;;;5051517;28;20036;-73
2021/03/25 12:02:17;;;;;;;42.65;18.38;;;11.30;99.90;;;;;;5070072;28;20043;-73
2021/03/25 12:04:44;;;;;;;40.10;17.98;;;11.60;99.90;;;;;;5073153;28;20037;-73
2021/03/25 12:07:12;;;;;;;35.47;16.40;;;11.80;99.90;;;;;;5063337;28;20021;-73
2021/03/25 12:10:01;;;;;;;41.92;16.45;;;11.80;99.90;;;;;;5063613;28;20029;-73
2021/03/25 12:12:27;;;;;;;39.47;17.30;;;11.70;99.90;;;;;;5054411;28;20032;-73
2021/03/25 12:14:53;;;;;;;32.17;15.43;;;11.70;99.90;;;;;;5071727;28;20416;-73
2021/03/25 12:17:19;;;;;;;37.00;14.05;;;11.70;99.90;;;;;;5052718;28;20024;-71
2021/03/25 12:19:45;;;;;;;30.77;15.32;;;11.90;99.90;;;;;;5072431;28;20043;-72
2021/03/25 12:22:21;;;;;;;31.95;15.27;;;12.10;99.90;;;;;;5071620;28;20036;-73
2021/03/25 12:24:47;;;;;;;27.20;13.45;;;12.40;99.90;;;;;;5054412;28;20464;-73
2021/03/25 12:27:17;;;;;;;28.45;14.23;;;12.80;99.90;;;;;;5049487;28;20048;-73
2021/03/25 12:29:42;;;;;;;31.13;14.85;;;13.20;99.90;;;;;;5070336;28;20032;-73
2021/03/25 12:32:11;;;;;;;27.88;13.02;;;13.70;99.90;;;;;;5070998;28;20025;-73
2021/03/25 12:34:37;;;;;;;27.15;13.15;;;14.00;99.90;;;;;;5068874;28;20029;-73
2021/03/25 12:37:03;;;;;;;24.27;13.52;;;14.30;99.90;;;;;;5063716;28;20123;-73
2021/03/25 12:39:28;;;;;;;24.33;13.25;;;14.30;99.90;;;;;;5062587;28;20021;-72
2021/03/25 12:41:54;;;;;;;26.30;12.90;;;14.10;99.90;;;;;;5069066;28;20487;-73
2021/03/25 12:44:20;;;;;;;21.50;12.10;;;14.30;99.90;;;;;;5079508;28;20040;-73
2021/03/25 12:46:45;;;;;;;22.42;11.75;;;14.40;99.90;;;;;;5078748;28;20075;-73
2021/03/25 12:49:11;;;;;;;18.92;11.05;;;14.50;99.90;;;;;;5060615;28;20459;-72
2021/03/25 12:51:36;;;;;;;21.35;11.80;;;14.80;99.90;;;;;;5079986;28;20031;-72
2021/03/25 12:54:02;;;;;;;24.08;13.02;;;15.00;99.90;;;;;;5079171;28;20037;-72
2021/03/25 12:56:32;;;;;;;23.30;12.23;;;15.20;99.90;;;;;;5080956;28;20124;-72
2021/03/25 12:59:02;;;;;;;17.98;11.23;;;15.30;99.90;;;;;;5083330;28;20058;-72
2021/03/25 13:01:30;;;;;;;15.38;8.65;;;15.70;99.90;;;;;;5083982;28;20035;-72
2021/03/25 13:03:56;;;;;;;16.20;8.23;;;16.10;99.90;;;;;;5066857;28;20016;-72
2021/03/25 13:06:23;;;;;;;16.27;7.13;;;16.10;99.90;;;;;;5081927;28;20028;-72
2021/03/25 13:08:49;;;;;;;16.90;8.07;;;16.30;99.90;;;;;;5059709;28;20112;-72
2021/03/25 13:11:21;;;;;;;14.93;8.63;;;16.30;99.90;;;;;;5069448;28;20028;-72
2021/03/25 13:13:47;;;;;;;15.50;8.32;;;16.00;99.90;;;;;;5071943;28;20044;-73